KILN/ILN METAR and TAF weather

Enter ICAO airport designator
Station Type Date Time Source
KILN METAR 2022/11/30 08:54 UTC NOAA

KILN 300854Z AUTO 22016G20KT 10SM OVC008 13/12 A2963 RMK AO2 CIG 007V012 SLP036 60004 T01330122 56021


Station Type Date Time Source
KILN Decoded METAR 2022/11/30 08:54 UTC NOAA

WILMINGTON INDUSTRIAL AIRPORT , OH, United States (KILN) 39-26N 083-47W 332M
Nov 30, 2022 - 03:54 AM EST / 2022.11.30 0854 UTC
Wind: from the SW (220 degrees) at 18 MPH (16 KT) gusting to 23 MPH (20 KT):0
Visibility: 10 mile(s):0
Sky conditions: overcast
Temperature: 55.9 F (13.3 C)
Dew Point: 54.0 F (12.2 C)
Relative Humidity: 93%
Pressure (altimeter): 29.63 in. Hg (1003 hPa)
Pressure tendency: 0.06 inches (2.1 hPa) lower than three hours ago
ob: KILN 300854Z AUTO 22016G20KT 10SM OVC008 13/12 A2963 RMK AO2 CIG 007V012 SLP036 60004 T01330122 56021
cycle: 9

Station Type Date Time Source
KILN TAF 2022/11/30 08:51 UTC NOAA

TAF
AMD KILN 300748Z 3008/0106 20014G24KT 5SM -SHRA VCTS OVC015CB
TEMPO 3008/3010 2SM SHRA OVC008
FM301000 29018G32KT P6SM OVC015
FM301200 29018G30KT P6SM BKN015
FM301600 29017G28KT P6SM SCT250
FM010000 28012G20KT P6SM SKC

Example: see airport list